createdAt,value
2023-05-01T08:12:31.318Z,3.90
2023-05-01T08:18:45.309Z,4.30
2023-05-01T08:31:48.050Z,3.70
2023-05-01T08:39:36.067Z,3.00
2023-05-01T08:40:36.159Z,3.50
2023-05-01T08:56:16.860Z,2.90
2023-05-01T08:57:16.941Z,2.90
2023-05-01T08:58:37.618Z,2.90
2023-05-01T09:03:41.289Z,2.90
2023-05-01T09:04:41.311Z,3.00
2023-05-01T09:06:06.289Z,3.00
2023-05-01T09:07:06.346Z,3.00
2023-05-01T09:12:53.268Z,3.00
2023-05-01T09:13:53.345Z,3.30
2023-05-01T09:15:12.293Z,2.90
2023-05-01T09:16:12.368Z,2.90
2023-05-01T09:17:36.386Z,3.00
2023-05-01T09:18:36.426Z,2.90
2023-05-01T09:22:17.798Z,3.00
2023-05-01T09:23:17.867Z,3.10
2023-05-01T09:24:37.904Z,3.20
2023-05-01T09:25:37.975Z,2.90
2023-05-01T09:26:51.339Z,2.80
2023-05-01T09:27:51.474Z,3.00
2023-05-01T09:31:27.254Z,3.30
2023-05-01T09:32:27.384Z,3.10
2023-05-01T09:33:39.393Z,3.00
2023-05-01T09:34:39.505Z,3.00
2023-05-01T09:35:49.664Z,2.90
2023-05-01T09:36:49.721Z,3.00
2023-05-01T09:37:57.439Z,2.80
2023-05-01T09:38:57.529Z,3.10
2023-05-01T09:42:10.624Z,2.90
2023-05-01T09:43:11.831Z,3.00
2023-05-01T09:48:35.071Z,3.20
2023-05-01T09:49:32.307Z,3.20
2023-05-01T09:50:39.301Z,3.20
2023-05-01T09:51:39.381Z,3.30
2023-05-01T09:52:47.710Z,3.30
2023-05-01T09:53:47.779Z,3.80
2023-05-01T10:01:16.200Z,3.30
2023-05-01T10:02:16.216Z,3.90
2023-05-01T10:16:06.920Z,3.60
2023-05-01T10:17:07.025Z,3.40
2023-05-01T10:18:14.084Z,3.70
2023-05-01T10:19:14.108Z,3.70
2023-05-01T10:20:20.904Z,3.60
2023-05-01T10:21:20.961Z,3.50
2023-05-01T10:28:53.995Z,5.80
2023-05-01T10:29:54.113Z,5.20
2023-05-01T10:31:03.325Z,3.50
2023-05-01T10:32:03.505Z,3.90
2023-05-01T10:39:40.375Z,3.70
2023-05-01T10:40:40.480Z,3.40
2023-05-01T10:41:51.937Z,3.70
2023-05-01T10:42:52.004Z,3.60
2023-05-01T10:48:20.347Z,3.70
2023-05-01T10:49:20.379Z,3.80
2023-05-01T10:52:45.030Z,3.60
2023-05-01T11:07:56.451Z,3.30
2023-05-01T11:08:56.568Z,3.20
2023-05-01T11:17:23.344Z,3.60
2023-05-01T11:58:04.093Z,3.80
2023-05-01T11:59:04.165Z,3.70
2023-05-01T12:00:11.217Z,3.60
2023-05-01T12:01:11.286Z,3.60
2023-05-01T12:02:17.899Z,3.40
2023-05-01T12:03:18.270Z,3.70
2023-05-01T12:38:35.416Z,3.40
2023-05-01T12:39:35.491Z,3.50
2023-05-01T12:51:02.835Z,3.50
2023-05-01T12:52:02.859Z,3.80
2023-05-01T13:05:43.514Z,3.90
2023-05-01T13:06:43.625Z,4.30
2023-05-01T13:39:06.686Z,3.80
2023-05-01T13:40:06.740Z,4.10
2023-05-01T14:44:14.464Z,4.20
2023-05-01T22:17:51.681Z,15.90
2023-05-01T22:18:51.749Z,16.60
2023-05-01T22:19:51.825Z,17.80
2023-05-01T22:20:51.893Z,17.60
2023-05-01T22:21:52.028Z,18.30
2023-05-01T22:22:52.059Z,17.20
2023-05-01T22:23:52.152Z,18.00
2023-05-01T22:24:52.179Z,17.10
2023-05-01T22:25:52.279Z,17.70
2023-05-01T22:26:52.325Z,17.20
2023-05-01T22:27:52.427Z,17.30
2023-05-01T22:28:52.496Z,16.70
2023-05-01T22:29:52.603Z,17.30
2023-05-01T22:30:52.631Z,15.90
2023-05-01T22:31:52.821Z,16.30
2023-05-01T22:32:52.878Z,15.50
2023-05-01T22:33:52.940Z,16.40
2023-05-01T22:34:52.957Z,16.40
2023-05-01T22:35:53.070Z,16.60
2023-05-01T22:36:53.130Z,15.80
2023-05-01T22:37:53.187Z,16.50
2023-05-01T22:38:53.296Z,16.30
2023-05-01T22:39:53.435Z,16.60
2023-05-01T22:40:53.407Z,16.50
2023-05-01T22:41:53.471Z,16.00
2023-05-01T22:42:53.573Z,15.70
2023-05-01T22:43:53.648Z,15.20
2023-05-01T22:44:53.749Z,16.50
2023-05-01T22:45:53.823Z,15.90
2023-05-01T22:46:53.927Z,15.70
2023-05-01T22:47:54.074Z,15.90
2023-05-01T22:48:54.105Z,16.80
2023-05-01T22:49:54.160Z,15.70
2023-05-01T22:50:54.279Z,15.90
2023-05-01T22:51:54.303Z,16.70
2023-05-01T22:52:54.376Z,15.50
2023-05-01T22:53:54.443Z,15.60
2023-05-01T22:54:54.515Z,15.80
2023-05-01T22:55:54.625Z,15.30
2023-05-01T22:56:54.679Z,16.40
2023-05-01T22:57:54.768Z,16.10
2023-05-01T22:58:54.836Z,15.70
2023-05-01T22:59:54.928Z,15.20
2023-05-01T23:00:54.985Z,16.30
2023-05-01T23:01:55.211Z,15.70
2023-05-01T23:02:55.234Z,16.10
2023-05-01T23:03:55.342Z,15.70
2023-05-01T23:04:55.332Z,15.90
2023-05-01T23:05:55.413Z,15.80
2023-05-01T23:06:55.522Z,15.70
2023-05-01T23:07:55.611Z,15.40
2023-05-01T23:08:55.680Z,15.50
2023-05-01T23:09:55.746Z,15.80
2023-05-01T23:10:55.903Z,15.80
2023-05-01T23:11:55.948Z,16.20
2023-05-01T23:12:56.036Z,15.70
2023-05-01T23:13:56.069Z,15.60
2023-05-01T23:14:56.179Z,16.20
2023-05-01T23:15:56.284Z,16.70
2023-05-01T23:16:56.400Z,16.50
2023-05-01T23:17:56.454Z,16.30
2023-05-01T23:18:56.543Z,16.20
2023-05-01T23:19:56.797Z,16.60
2023-05-01T23:20:56.665Z,16.70
2023-05-01T23:21:56.819Z,16.20
2023-05-01T23:22:56.821Z,16.70
2023-05-01T23:23:56.891Z,15.90
2023-05-01T23:24:56.972Z,16.30
2023-05-01T23:25:57.074Z,15.90
2023-05-01T23:26:57.220Z,16.40
2023-05-01T23:27:57.272Z,16.90
2023-05-01T23:28:57.348Z,17.10
2023-05-01T23:29:58.310Z,16.40
2023-05-01T23:30:57.566Z,16.40
2023-05-01T23:31:57.848Z,16.60
2023-05-01T23:32:57.842Z,16.90
2023-05-01T23:33:57.778Z,16.60
2023-05-01T23:34:57.890Z,16.90
2023-05-01T23:35:57.977Z,17.10
2023-05-01T23:36:58.072Z,16.50
2023-05-01T23:37:58.180Z,16.70
2023-05-01T23:38:58.295Z,16.80
2023-05-01T23:39:58.525Z,16.90
2023-05-01T23:40:58.421Z,17.00
2023-05-01T23:41:58.508Z,17.30
2023-05-01T23:42:58.607Z,16.90
2023-05-01T23:43:58.694Z,17.20
2023-05-01T23:44:58.768Z,16.80
2023-05-01T23:45:58.862Z,17.10
2023-05-01T23:46:59.045Z,16.20
2023-05-01T23:47:59.040Z,16.80
2023-05-01T23:48:59.117Z,17.40
2023-05-01T23:49:59.311Z,16.50
2023-05-01T23:50:59.231Z,13.70
2023-05-01T23:51:59.325Z,12.60
2023-05-01T23:52:59.380Z,12.30
2023-05-01T23:53:59.557Z,13.70
2023-05-01T23:54:59.554Z,14.30
2023-05-01T23:55:59.670Z,14.40
2023-05-01T23:56:59.741Z,13.90
2023-05-01T23:57:59.796Z,13.00
2023-05-01T23:58:59.903Z,14.50
